NGTA/TRW METAR and TAF weather

Enter ICAO airport designator
Station Type Date Time Source
NGTA METAR 2019/02/21 11:00 UTC NOAA

NGTA 211100Z 30005KT 9000 -RA SCT017 SCT040 OVC090 26/25 Q1010


Station Type Date Time Source
NGTA Decoded METAR 2019/02/21 11:00 UTC NOAA

Tarawa, Kiribati (NGTA) 01-21N 172-55E 4M
Feb 21, 2019 - 06:00 AM EST / 2019.02.21 1100 UTC
Wind: from the WNW (300 degrees) at 6 MPH (5 KT):0
Visibility: 5 mile(s):0
Sky conditions: overcast
Weather: light rain
Temperature: 78 F (26 C)
Dew Point: 77 F (25 C)
Relative Humidity: 94%
Pressure (altimeter): 29.83 in. Hg (1010 hPa)
ob: NGTA 211100Z 30005KT 9000 -RA SCT017 SCT040 OVC090 26/25 Q1010
cycle: 11

Station Type Date Time Source
NGTA TAF 2019/02/21 12:15 UTC NOAA

TAF NGTA 211103Z 2112/2212 28010KT 8000 -SHRA SCT017 SCT040 OVC090 PROB40
TEMPO 2112/2206 10015G25KT 2000 +TSRA BKN015 FEW018CB PROB40
TEMPO 2206/2212 3000 TSRA BKN015 FEW018CB


Example: see airport list